Time;durP1;ratioP1;P1;durP2;ratioP2;P2;SDS_P1;SDS_P2;PMS_P1;PMS_P2;Temp;Humidity;BMP_temperature;BMP_pressure;BME280_temperature;BME280_humidity;BME280_pressure;Samples;Min_cycle;Max_cycle;Signal;HPM_P1;HPM_P2
2023/01/26 00:01:40;;;;;;;41.30;32.20;;;;;;;1.38;72.43;101280.35;108366;1297;22565;-87
2023/01/26 00:05:58;;;;;;;39.90;29.90;;;;;;;1.35;72.37;101273.30;107563;1302;22500;-84
2023/01/26 00:09:27;;;;;;;39.40;32.40;;;;;;;1.33;72.30;101267.50;107310;1299;22611;-85
2023/01/26 00:19:03;;;;;;;38.40;31.40;;;;;;;1.38;72.26;101268.59;107193;1305;545692;-84
2023/01/26 00:23:03;;;;;;;38.30;31.90;;;;;;;1.46;72.37;101262.30;108622;1288;22588;-87
2023/01/26 00:30:55;;;;;;;34.30;28.80;;;;;;;1.45;71.97;101255.16;109016;1287;22575;-85
2023/01/26 00:34:47;;;;;;;37.60;31.20;;;;;;;1.43;72.05;101258.54;102859;1291;22705;-87
2023/01/26 00:39:03;;;;;;;38.30;31.20;;;;;;;1.44;72.20;101259.48;105943;1298;23822;-84
2023/01/26 00:43:16;;;;;;;40.80;32.30;;;;;;;1.44;72.24;101254.22;106093;1304;24116;-86
2023/01/26 00:47:46;;;;;;;36.00;30.40;;;;;;;1.55;72.08;101255.05;107122;1300;558461;-86
2023/01/26 00:51:05;;;;;;;33.10;29.00;;;;;;;1.56;71.91;101250.91;109280;1290;22545;-86
2023/01/26 00:54:35;;;;;;;40.80;31.10;;;;;;;1.57;71.91;101242.98;108004;1286;22556;-86
2023/01/26 00:58:06;;;;;;;;;;;;;;;1.57;71.85;101237.94;109201;1286;23957;-85
2023/01/26 01:01:57;;;;;;;35.60;27.80;;;;;;;1.58;72.01;101239.89;102070;1284;25460;-85
2023/01/26 01:05:44;;;;;;;37.10;31.30;;;;;;;1.57;71.92;101245.04;108760;1284;22923;-83
2023/01/26 01:09:41;;;;;;;35.50;30.70;;;;;;;1.58;71.90;101242.52;107616;1287;22666;-85
2023/01/26 01:13:47;;;;;;;38.10;31.00;;;;;;;1.59;71.64;101244.46;106866;1290;22779;-86
2023/01/26 01:16:58;;;;;;;38.20;30.80;;;;;;;1.60;71.86;101243.08;106912;1290;25520;-86
2023/01/26 01:20:49;;;;;;;38.60;31.80;;;;;;;1.62;71.82;101239.67;105989;1295;24144;-86
2023/01/26 01:25:04;;;;;;;37.50;31.40;;;;;;;1.55;71.87;101229.88;105627;1299;22685;-86
2023/01/26 01:33:26;;;;;;;38.10;31.20;;;;;;;1.52;71.97;101208.38;105037;1302;25572;-85
2023/01/26 01:37:16;;;;;;;40.10;30.80;;;;;;;1.49;72.12;101205.30;104734;1289;22759;-86
2023/01/26 01:41:36;;;;;;;39.50;31.80;;;;;;;1.57;72.07;101202.52;105407;1298;559618;-88
2023/01/26 01:49:58;;;;;;;40.20;32.30;;;;;;;1.65;71.97;101179.02;105423;1301;26150;-86
2023/01/26 01:53:47;;;;;;;39.10;31.40;;;;;;;1.64;72.09;101175.86;100281;1306;6412981;-87
2023/01/26 01:57:57;;;;;;;38.70;31.00;;;;;;;1.57;71.89;101168.14;104890;1304;24324;-86
2023/01/26 02:02:15;;;;;;;38.50;32.00;;;;;;;1.49;71.84;101166.61;105272;1311;22648;-87
2023/01/26 02:06:41;;;;;;;;;;;;;;;;;;;;;
2023/01/26 02:14:51;;;;;;;;;;;;;;;;;;;;;
2023/01/26 02:18:36;;;;;;;39.40;30.00;;;;;;;1.47;72.04;101164.11;104698;1315;25452;-85
2023/01/26 02:22:25;;;;;;;37.80;31.70;;;;;;;1.39;72.20;101162.91;104938;1314;22582;-87
2023/01/26 02:26:36;;;;;;;44.10;33.50;;;;;;;1.40;72.45;101152.71;105384;1308;22665;-87
2023/01/26 02:30:27;;;;;;;43.70;34.10;;;;;;;1.45;72.58;101148.06;105625;1308;22569;-86
2023/01/26 02:34:18;;;;;;;37.40;31.10;;;;;;;1.53;72.50;101144.01;105052;1308;22689;-87
2023/01/26 02:38:06;;;;;;;39.80;32.10;;;;;;;1.54;72.22;101146.48;106620;1308;22581;-84
2023/01/26 02:46:04;;;;;;;39.80;32.20;;;;;;;1.50;72.40;101143.91;108050;1299;22592;-83
2023/01/26 02:49:52;;;;;;;43.90;32.50;;;;;;;1.52;72.43;101145.20;107602;1300;23237;-86
2023/01/26 02:54:03;;;;;;;41.00;33.90;;;;;;;1.52;72.51;101136.15;108653;1294;22828;-87
2023/01/26 02:58:12;;;;;;;36.60;29.90;;;;;;;1.57;72.51;101129.59;108268;1297;22011;-86
2023/01/26 03:02:09;;;;;;;40.30;32.50;;;;;;;1.57;72.34;101120.76;107993;1303;22428;-85
2023/01/26 03:05:58;;;;;;;41.00;32.90;;;;;;;1.63;72.67;101108.98;108641;1296;22650;-84
2023/01/26 03:09:48;;;;;;;40.40;34.30;;;;;;;1.68;72.57;101101.71;109642;1290;22584;-86
2023/01/26 03:13:59;;;;;;;40.10;33.00;;;;;;;1.71;72.58;101102.86;109090;1290;22643;-87
2023/01/26 03:34:40;;;;;;;39.10;32.10;;;;;;;1.68;72.51;101077.20;105849;1296;24173;-85
2023/01/26 03:38:27;;;;;;;41.80;33.40;;;;;;;1.66;72.79;101077.67;105787;1292;22553;-89
2023/01/26 03:56:17;;;;;;;42.80;34.00;;;;;;;1.77;72.45;101062.48;108843;1286;25615;-84
2023/01/26 03:59:36;;;;;;;41.70;33.30;;;;;;;1.83;72.46;101059.56;109845;1288;22336;-87
2023/01/26 04:11:07;;;;;;;42.10;33.50;;;;;;;1.81;72.22;101053.21;109644;1285;22244;-85
2023/01/26 04:23:37;;;;;;;45.20;34.70;;;;;;;1.82;72.20;101043.89;109928;1285;22655;-84
2023/01/26 04:27:46;;;;;;;41.60;33.00;;;;;;;1.85;72.28;101044.87;109901;1285;22169;-87
2023/01/26 04:31:54;;;;;;;37.70;30.50;;;;;;;1.83;71.99;101048.95;109903;1287;22980;-85
2023/01/26 04:35:53;;;;;;;38.30;30.60;;;;;;;1.70;72.05;101052.99;109904;1285;22165;-85
2023/01/26 04:39:45;;;;;;;38.50;31.20;;;;;;;1.62;72.17;101051.11;109520;1291;22142;-85
2023/01/26 04:43:54;;;;;;;46.10;32.90;;;;;;;1.68;72.13;101046.13;108707;1296;22191;-87
2023/01/26 04:48:06;;;;;;;42.00;31.50;;;;;;;1.74;72.15;101051.25;108675;1296;22214;-87
2023/01/26 04:52:15;;;;;;;41.90;31.80;;;;;;;1.66;72.20;101050.60;108852;1292;22347;-86
2023/01/26 04:55:45;;;;;;;40.60;31.30;;;;;;;1.69;72.41;101047.77;109271;1287;22167;-87
2023/01/26 04:59:18;;;;;;;44.00;32.30;;;;;;;1.72;72.20;101045.10;109813;1287;22215;-86
2023/01/26 05:02:49;;;;;;;41.50;32.50;;;;;;;1.69;72.16;101042.89;110019;1284;23064;-86
2023/01/26 05:06:22;;;;;;;40.90;31.90;;;;;;;1.75;72.06;101035.98;110018;1285;22015;-86
2023/01/26 05:10:30;;;;;;;40.40;31.70;;;;;;;1.85;72.22;101026.61;109813;1288;22982;-86
2023/01/26 05:14:39;;;;;;;42.90;32.40;;;;;;;1.87;71.97;101031.02;109932;1288;22254;-87
2023/01/26 05:18:55;;;;;;;44.90;33.50;;;;;;;1.88;72.13;101033.67;109487;1293;23047;-88
2023/01/26 05:23:21;;;;;;;47.70;31.90;;;;;;;1.90;71.91;101027.16;109471;1293;22722;-87
2023/01/26 05:27:36;;;;;;;48.40;33.80;;;;;;;1.89;71.87;101023.64;109196;1289;22158;-87
2023/01/26 05:31:30;;;;;;;39.80;31.80;;;;;;;1.94;71.86;101019.67;109564;1290;22240;-87
2023/01/26 05:35:40;;;;;;;44.70;33.30;;;;;;;2.04;71.96;101019.31;109595;1290;22863;-87
2023/01/26 05:39:49;;;;;;;44.00;34.30;;;;;;;2.09;71.69;101022.61;109680;1291;22170;-86
2023/01/26 05:43:45;;;;;;;48.60;34.00;;;;;;;2.10;71.88;101027.38;108834;1298;22173;-87
2023/01/26 05:47:38;;;;;;;44.00;33.90;;;;;;;2.14;71.79;101021.95;108552;1297;22148;-86
2023/01/26 05:51:47;;;;;;;44.10;32.70;;;;;;;2.17;71.75;101020.83;108890;1297;22166;-86
2023/01/26 05:55:19;;;;;;;40.20;29.40;;;;;;;2.20;71.65;101024.23;108984;1293;22196;-86
2023/01/26 05:58:55;;;;;;;38.70;30.20;;;;;;;2.16;71.21;101031.20;109194;1292;22140;-85
2023/01/26 06:02:03;;;;;;;38.80;30.10;;;;;;;2.11;71.42;101034.51;109304;1277;22296;-85
2023/01/26 06:04:54;;;;;;;39.00;29.80;;;;;;;2.14;71.70;101033.93;109494;1287;22326;-84
2023/01/26 06:07:29;;;;;;;41.20;30.80;;;;;;;2.19;71.76;101036.02;109653;1287;22180;-84
2023/01/26 06:10:25;;;;;;;33.10;28.00;;;;;;;2.21;71.39;101033.48;109369;1291;22177;-84
2023/01/26 06:13:16;;;;;;;35.50;27.20;;;;;;;2.18;71.37;101025.71;109096;1291;22191;-84
2023/01/26 06:16:01;;;;;;;37.20;27.40;;;;;;;2.18;71.45;101027.29;109421;1291;22170;-85
2023/01/26 06:18:31;;;;;;;32.70;25.90;;;;;;;2.21;71.64;101029.30;109475;1291;22227;-84
2023/01/26 06:21:35;;;;;;;33.70;26.80;;;;;;;2.22;71.56;101024.65;109882;1284;22140;-86
2023/01/26 06:24:41;;;;;;;33.00;25.80;;;;;;;2.21;71.45;101025.48;109789;1286;22143;-85
2023/01/26 06:27:16;;;;;;;33.30;26.50;;;;;;;2.23;71.32;101018.94;109451;1286;22195;-85
2023/01/26 06:30:09;;;;;;;32.70;25.90;;;;;;;2.24;71.26;101018.10;109534;1291;22115;-86
2023/01/26 06:32:38;;;;;;;35.20;27.90;;;;;;;2.22;71.24;101016.31;109560;1290;22137;-83
2023/01/26 06:35:07;;;;;;;35.00;26.90;;;;;;;2.24;71.28;101019.66;109474;1291;22229;-88
2023/01/26 06:37:40;;;;;;;34.50;27.50;;;;;;;2.25;71.23;101016.41;109433;1291;22166;-88
2023/01/26 06:40:42;;;;;;;38.70;28.50;;;;;;;2.27;71.04;101023.25;109473;1291;22977;-86
2023/01/26 06:43:41;;;;;;;38.80;28.10;;;;;;;2.23;70.92;101025.05;109668;1288;22176;-86
2023/01/26 06:46:45;;;;;;;41.10;31.40;;;;;;;2.18;70.83;101018.62;109934;1285;22162;-86
2023/01/26 06:50:06;;;;;;;38.60;30.60;;;;;;;2.14;71.08;101015.51;109920;1285;22145;-86
2023/01/26 06:53:36;;;;;;;48.00;33.90;;;;;;;2.18;71.14;101011.47;109917;1285;22954;-84
2023/01/26 06:57:17;;;;;;;46.60;34.60;;;;;;;2.20;71.12;101009.46;110059;1276;22272;-89
2023/01/26 07:01:05;;;;;;;45.10;33.70;;;;;;;2.22;71.12;101010.05;109913;1284;22142;-86
2023/01/26 07:04:15;;;;;;;47.30;35.70;;;;;;;2.17;71.10;101014.55;109926;1281;22109;-86
2023/01/26 07:08:26;;;;;;;43.50;34.20;;;;;;;2.15;71.22;101012.91;110190;1276;22129;-87
2023/01/26 07:12:18;;;;;;;43.70;32.20;;;;;;;2.11;71.08;101016.06;110529;1276;22310;-87
2023/01/26 07:16:33;;;;;;;43.60;33.70;;;;;;;2.08;71.11;101015.46;110521;1276;22922;-87
2023/01/26 07:20:11;;;;;;;46.30;32.20;;;;;;;2.11;71.04;101011.38;110521;1276;22163;-88
2023/01/26 07:23:45;;;;;;;41.50;31.40;;;;;;;2.15;71.07;101008.24;110563;1276;22283;-88
2023/01/26 07:27:55;;;;;;;35.90;28.40;;;;;;;2.15;70.79;101002.67;110086;1281;22966;-87
2023/01/26 07:31:26;;;;;;;40.20;30.10;;;;;;;2.15;70.94;100999.21;110063;1281;22143;-86
2023/01/26 07:34:18;;;;;;;38.50;29.90;;;;;;;2.15;70.79;100998.14;110093;1281;22149;-86
2023/01/26 07:37:58;;;;;;;40.80;29.30;;;;;;;2.15;70.89;100999.37;110123;1281;22180;-87
2023/01/26 07:41:33;;;;;;;37.90;27.70;;;;;;;2.10;70.87;100992.27;110116;1281;22112;-86
2023/01/26 07:45:03;;;;;;;39.40;27.30;;;;;;;2.14;70.82;100990.65;109712;1274;22221;-87
2023/01/26 07:48:22;;;;;;;35.30;27.70;;;;;;;2.19;70.90;100994.98;109851;1286;22155;-88
2023/01/26 07:51:33;;;;;;;34.60;27.20;;;;;;;2.21;70.76;100992.27;109874;1286;22394;-86
2023/01/26 07:54:50;;;;;;;35.60;28.20;;;;;;;2.21;70.74;100993.15;109336;1290;22195;-86
2023/01/26 07:58:04;;;;;;;39.60;26.70;;;;;;;2.24;70.87;100993.08;109618;1290;22180;-85
2023/01/26 08:01:33;;;;;;;38.40;28.10;;;;;;;2.21;70.63;100995.41;109005;1295;22270;-86
2023/01/26 08:05:29;;;;;;;38.90;27.00;;;;;;;2.20;70.48;100994.52;109664;1286;23112;-87
2023/01/26 08:08:57;;;;;;;30.80;23.70;;;;;;;2.18;70.43;100995.68;109817;1286;22853;-85
2023/01/26 08:15:09;;;;;;;32.70;24.70;;;;;;;2.26;70.44;100987.40;109922;1284;22867;-88
2023/01/26 08:19:11;;;;;;;35.00;26.00;;;;;;;2.27;70.29;100989.34;109684;1283;22371;-85
2023/01/26 08:23:23;;;;;;;31.20;23.90;;;;;;;2.29;70.44;100990.63;110037;1283;22187;-87
2023/01/26 08:27:22;;;;;;;30.40;22.60;;;;;;;2.28;70.23;100993.56;110158;1283;22345;-86
2023/01/26 08:34:31;;;;;;;;;;;;;;;;;;;;;
2023/01/26 08:53:57;;;;;;;23.20;18.00;;;;;;;2.11;69.18;100986.54;106529;1294;23333;-89
2023/01/26 09:06:32;;;;;;;18.60;15.60;;;;;;;2.27;68.32;101005.70;105247;1310;25984;-89
2023/01/26 09:19:46;;;;;;;22.00;16.50;;;;;;;1.99;68.36;101013.06;105539;1321;24276;-90
2023/01/26 09:28:29;;;;;;;21.90;17.00;;;;;;;2.13;68.38;101010.07;106362;1321;22549;-88
2023/01/26 11:10:18;;;;;;;14.50;12.70;;;;;;;2.51;66.19;100902.54;112660;1253;22376;-91
2023/01/26 11:19:02;;;;;;;17.60;13.30;;;;;;;2.55;66.01;100894.64;112146;1262;22577;-92
2023/01/26 11:29:12;;;;;;;20.90;14.00;;;;;;;2.44;65.71;100881.77;112753;1254;22273;-88
2023/01/26 11:32:28;;;;;;;16.90;12.70;;;;;;;2.39;65.63;100879.21;112316;1260;22555;-88
2023/01/26 11:44:24;;;;;;;17.30;13.30;;;;;;;2.46;65.64;100875.44;110764;1273;22151;-86
2023/01/26 11:47:36;;;;;;;14.30;12.80;;;;;;;2.54;65.58;100867.67;110718;1273;23245;-86
2023/01/26 11:50:28;;;;;;;16.90;13.50;;;;;;;2.60;65.40;100863.52;110232;1279;22128;-85
2023/01/26 11:54:10;;;;;;;17.20;13.50;;;;;;;2.62;65.27;100860.62;109884;1285;22954;-85
2023/01/26 11:58:05;;;;;;;15.10;13.00;;;;;;;2.53;65.17;100859.64;109723;1288;22157;-88
2023/01/26 12:01:33;;;;;;;14.80;13.20;;;;;;;2.51;65.20;100856.63;109672;1289;22364;-86
2023/01/26 12:04:45;;;;;;;14.70;12.70;;;;;;;2.48;65.26;100849.07;109663;1289;22163;-85
2023/01/26 12:08:10;;;;;;;17.40;14.60;;;;;;;2.48;65.15;100849.56;109697;1284;22257;-87
2023/01/26 12:11:21;;;;;;;14.70;13.30;;;;;;;2.51;65.31;100853.31;109929;1284;22172;-86
2023/01/26 12:14:28;;;;;;;16.00;13.30;;;;;;;2.48;65.15;100846.81;109890;1284;22217;-87
2023/01/26 12:17:08;;;;;;;15.90;13.60;;;;;;;2.46;65.27;100850.40;110079;1278;22171;-85
2023/01/26 12:20:03;;;;;;;17.20;13.60;;;;;;;2.49;65.31;100845.61;110217;1272;22349;-85
2023/01/26 12:23:12;;;;;;;15.10;12.80;;;;;;;2.55;65.32;100845.44;110362;1276;22394;-85
2023/01/26 12:25:59;;;;;;;15.70;13.90;;;;;;;2.56;65.27;100843.73;110231;1276;22170;-85
2023/01/26 12:29:08;;;;;;;17.20;14.50;;;;;;;2.59;65.13;100840.36;110984;1268;22323;-88
2023/01/26 12:32:42;;;;;;;16.40;14.40;;;;;;;2.53;64.87;100836.19;110557;1267;22157;-86
2023/01/26 12:35:54;;;;;;;17.00;15.20;;;;;;;2.51;65.05;100842.20;111093;1267;22189;-87
2023/01/26 12:39:09;;;;;;;18.40;14.00;;;;;;;2.51;65.03;100841.83;111990;1263;22401;-86
2023/01/26 12:42:43;;;;;;;17.60;15.40;;;;;;;2.52;65.15;100839.42;112124;1263;22566;-87
2023/01/26 12:45:40;;;;;;;16.50;14.90;;;;;;;2.48;65.00;100835.67;110640;1274;22214;-86
2023/01/26 12:48:41;;;;;;;17.60;15.70;;;;;;;2.43;64.78;100832.03;110632;1274;22433;-86
2023/01/26 13:00:59;;;;;;;17.00;14.90;;;;;;;2.37;64.71;100837.06;110374;1278;22193;-87
2023/01/26 13:07:53;;;;;;;17.60;15.10;;;;;;;2.36;64.86;100837.05;110453;1274;22219;-85
2023/01/26 13:15:07;;;;;;;18.40;15.10;;;;;;;2.32;64.84;100831.88;111151;1268;23035;-90
2023/01/26 13:18:08;;;;;;;19.60;16.80;;;;;;;2.34;64.85;100827.59;111184;1266;22434;-88
2023/01/26 13:20:49;;;;;;;21.90;16.70;;;;;;;2.31;64.65;100823.65;111639;1266;22321;-88
2023/01/26 13:23:36;;;;;;;19.40;17.20;;;;;;;2.24;64.66;100821.72;112061;1262;22373;-89
2023/01/26 13:26:09;;;;;;;18.70;16.50;;;;;;;2.21;64.71;100820.59;111353;1266;22339;-88
2023/01/26 13:28:37;;;;;;;20.80;16.90;;;;;;;2.20;64.71;100822.65;111423;1264;22356;-87
2023/01/26 13:31:27;;;;;;;20.60;17.30;;;;;;;2.21;64.83;100821.97;111752;1262;22349;-89
2023/01/26 13:34:08;;;;;;;22.30;18.10;;;;;;;2.25;65.00;100820.35;111722;1264;22137;-88
2023/01/26 13:37:08;;;;;;;23.60;18.90;;;;;;;2.28;64.92;100816.45;112360;1258;22419;-87
2023/01/26 13:39:40;;;;;;;22.10;17.00;;;;;;;2.31;64.84;100815.50;112493;1259;22340;-88
2023/01/26 13:42:24;;;;;;;26.70;18.50;;;;;;;2.29;64.59;100818.91;112757;1253;22367;-88
2023/01/26 13:45:25;;;;;;;19.60;16.80;;;;;;;2.27;64.60;100816.75;112852;1252;22406;-87
2023/01/26 13:47:55;;;;;;;21.40;17.10;;;;;;;2.30;64.64;100814.59;112753;1253;22312;-88
2023/01/26 13:50:42;;;;;;;22.20;17.80;;;;;;;2.32;64.86;100813.44;112967;1253;22310;-88
2023/01/26 13:53:40;;;;;;;23.20;18.70;;;;;;;2.35;64.77;100807.97;112691;1257;22127;-86
2023/01/26 13:56:22;;;;;;;22.50;17.70;;;;;;;2.38;64.82;100807.91;112690;1254;23001;-90
2023/01/26 13:59:50;;;;;;;25.40;18.50;;;;;;;2.40;64.89;100810.06;112374;1260;22504;-87
2023/01/26 14:11:40;;;;;;;27.80;19.80;;;;;;;2.18;64.95;100805.20;111283;1266;22127;-90
2023/01/26 14:14:29;;;;;;;23.90;19.80;;;;;;;2.23;65.25;100807.11;111778;1263;22346;-88
2023/01/26 14:20:34;;;;;;;27.10;19.60;;;;;;;2.22;65.15;100808.98;111257;1264;22950;-89
2023/01/26 14:24:27;;;;;;;25.20;16.50;;;;;;;2.20;65.06;100807.88;111028;1268;22378;-89
2023/01/26 14:27:40;;;;;;;25.40;19.20;;;;;;;2.13;64.96;100806.23;110643;1273;22342;-90
2023/01/26 14:30:35;;;;;;;29.20;19.60;;;;;;;2.10;65.29;100799.89;110681;1273;22127;-89
2023/01/26 14:33:31;;;;;;;25.80;19.10;;;;;;;2.08;65.35;100794.96;110641;1273;22157;-89
2023/01/26 14:37:00;;;;;;;27.90;21.10;;;;;;;2.04;65.52;100796.25;111257;1267;23107;-90
2023/01/26 14:40:42;;;;;;;29.30;19.80;;;;;;;2.06;65.85;100792.33;111167;1269;22142;-90
2023/01/26 14:44:27;;;;;;;28.80;21.50;;;;;;;2.04;65.87;100789.28;111866;1264;22316;-89
2023/01/26 14:47:41;;;;;;;34.80;21.50;;;;;;;1.92;65.69;100793.45;112320;1260;22870;-90
2023/01/26 14:50:26;;;;;;;32.30;22.30;;;;;;;1.82;66.00;100794.15;112374;1260;22360;-89
2023/01/26 14:54:38;;;;;;;30.50;22.30;;;;;;;1.86;66.45;100797.56;112353;1260;23187;-90
2023/01/26 15:10:06;;;;;;;31.80;19.50;;;;;;;1.93;66.62;100792.42;105675;1307;22583;-90
2023/01/26 15:13:44;;;;;;;30.00;20.90;;;;;;;1.88;66.45;100787.89;106838;1287;22534;-90
2023/01/26 15:30:06;;;;;;;;;;;;;;;1.86;66.88;100785.41;106538;1291;24289;-92
2023/01/26 15:43:19;;;;;;;30.50;21.60;;;;;;;1.84;66.85;100789.15;104964;1307;22583;-92
2023/01/26 15:48:01;;;;;;;;;;;;;;;;;;;;;
2023/01/26 15:55:36;;;;;;;33.70;22.10;;;;;;;1.80;67.12;100802.23;104386;1317;22716;-89
2023/01/26 16:29:03;;;;;;;36.60;21.80;;;;;;;1.97;66.99;100812.52;106056;1315;22579;-91
2023/01/26 16:38:03;;;;;;;38.00;23.60;;;;;;;1.88;67.06;100804.23;105769;1311;24266;-92
2023/01/26 16:50:18;;;;;;;30.80;20.60;;;;;;;2.06;66.92;100799.07;107995;1304;22880;-88
2023/01/26 16:53:34;;;;;;;32.40;24.20;;;;;;;1.99;66.47;100796.08;108343;1303;22174;-88
2023/01/26 16:57:05;;;;;;;32.60;23.10;;;;;;;1.93;66.56;100796.40;107934;1302;22592;-90
2023/01/26 17:09:03;;;;;;;26.50;21.50;;;;;;;1.92;66.49;100807.16;105642;1304;25474;-91
2023/01/26 17:13:30;;;;;;;30.90;22.10;;;;;;;1.91;66.17;100802.06;105119;1304;24253;-91
2023/01/26 17:17:25;;;;;;;28.40;21.80;;;;;;;1.95;66.41;100799.42;105153;1302;24370;-89
2023/01/26 17:21:18;;;;;;;26.90;20.10;;;;;;;2.03;66.04;100798.46;104586;1310;24465;-90
2023/01/26 17:25:26;;;;;;;31.60;25.20;;;;;;;2.06;66.10;100799.58;104291;1312;25451;-91
2023/01/26 17:29:22;;;;;;;28.30;20.80;;;;;;;2.05;65.92;100793.67;104201;1312;24006;-88
2023/01/26 17:31:58;;;;;;;28.40;21.80;;;;;;;2.06;65.86;100788.84;105124;1312;25310;-87
2023/01/26 17:35:18;;;;;;;26.60;20.80;;;;;;;2.04;65.82;100785.98;106766;1306;22582;-92
2023/01/26 17:50:38;;;;;;;21.70;18.20;;;;;;;1.77;65.22;100775.05;108565;1287;22549;-94
2023/01/26 17:55:10;;;;;;;;;;;;;;;;;;;;;
2023/01/26 19:37:03;;;;;;;;;;;;;;;;;;;;;
2023/01/26 19:41:18;;;;;;;19.50;17.50;;;;;;;1.25;65.84;100813.38;107783;1308;22581;-90
2023/01/26 19:46:10;;;;;;;;;;;;;;;;;;;;;
2023/01/26 19:50:24;;;;;;;20.70;16.50;;;;;;;1.28;65.91;100809.85;108184;1305;22324;-90
2023/01/26 20:13:00;;;;;;;23.20;17.70;;;;;;;1.53;65.86;100802.02;106731;1304;22577;-89
2023/01/26 20:17:41;;;;;;;;;;;;;;;;;;;;;
2023/01/26 20:34:08;;;;;;;;;;;;;;;;;;;;;
2023/01/26 20:42:17;;;;;;;;;;;;;;;;;;;;;
2023/01/26 20:50:42;;;;;;;;;;;;;;;;;;;;;
2023/01/26 21:46:15;;;;;;;19.00;16.30;;;;;;;1.65;63.47;100796.35;113571;1244;22477;31
2023/01/26 22:09:59;;;;;;;22.60;18.10;;;;;;;1.46;63.23;100785.47;112768;1255;22273;-89
2023/01/26 22:13:59;;;;;;;20.60;17.30;;;;;;;1.46;63.34;100784.25;111653;1265;22144;-89
2023/01/26 22:18:47;;;;;;;;;;;;;;;;;;;;;
2023/01/26 22:26:37;;;;;;;20.70;16.90;;;;;;;1.53;63.54;100779.45;110907;1273;22160;-89
2023/01/26 22:30:32;;;;;;;20.90;17.10;;;;;;;1.57;63.54;100777.17;110848;1273;22155;-88
2023/01/26 22:34:57;;;;;;;;;;;;;;;;;;;;;
2023/01/26 22:38:57;;;;;;;21.50;18.00;;;;;;;1.78;63.52;100770.39;110502;1276;22344;-88
2023/01/26 22:46:55;;;;;;;21.70;17.60;;;;;;;1.81;63.20;100775.52;110009;1281;22184;-87
2023/01/26 23:38:12;;;;;;;23.40;18.50;;;;;;;1.66;63.03;100756.63;110115;1280;22423;-87
